VKG179 EKCH-LGSK
Flight info
| Callsign | VKG179 |
|---|---|
| Flight time | 2h 38m |
| Altitude | 35000 |
| Route | SIMEG Z493 XELOL Z491 VAVUN L996 DENKO L616 DESEN DCT VALPI DCT PARAK DCT IRGOR DCT IBISI DCT KRATO DCT MAKED UL617 LEKPO L617 IBIDI |
| Aircraft | A321/M-SDE3FGHIRWY/LB1 |
Departure
| Time | 2026-05-05 07:01 |
|---|---|
| Airport | Copenhagen Kastrup Airport (EKCH) |
Arrival
| Time | 2026-05-05 09:40 |
|---|---|
| Airport | Skiathos Island National Airport (LGSK) |
| Time | Latitude | Longitude | Altitude | Speed | Heading |
|---|---|---|---|---|---|
| 2026-05-05 06:30 | 55.62573 | 12.65032 | 0 ft | 0 kts | 276° |
| 2026-05-05 06:48 | 55.62573 | 12.65038 | 20 ft | 3 kts | 275° |
| 2026-05-05 06:48 | 55.62571 | 12.65084 | 20 ft | 4 kts | 269° |
| 2026-05-05 06:48 | 55.62573 | 12.65131 | 22 ft | 4 kts | 259° |
| 2026-05-05 06:49 | 55.62580 | 12.65177 | 21 ft | 4 kts | 246° |
| 2026-05-05 06:49 | 55.62584 | 12.65192 | 20 ft | 0 kts | 245° |
| 2026-05-05 06:54 | 55.62583 | 12.65191 | 19 ft | 1 kts | 245° |
| 2026-05-05 06:54 | 55.62576 | 12.65186 | 19 ft | 2 kts | 196° |
| 2026-05-05 06:54 | 55.62543 | 12.65179 | 19 ft | 7 kts | 184° |
| 2026-05-05 06:54 | 55.62482 | 12.65178 | 20 ft | 11 kts | 174° |
| 2026-05-05 06:55 | 55.62393 | 12.65189 | 21 ft | 13 kts | 176° |
| 2026-05-05 06:55 | 55.62285 | 12.65199 | 22 ft | 18 kts | 178° |
| 2026-05-05 06:55 | 55.62158 | 12.65121 | 24 ft | 22 kts | 214° |
| 2026-05-05 06:55 | 55.62109 | 12.65064 | 22 ft | 4 kts | 213° |
| 2026-05-05 06:56 | 55.62061 | 12.65008 | 22 ft | 12 kts | 213° |
| 2026-05-05 06:56 | 55.61969 | 12.64901 | 20 ft | 20 kts | 213° |
| 2026-05-05 06:56 | 55.61833 | 12.64746 | 19 ft | 26 kts | 212° |
| 2026-05-05 06:56 | 55.61702 | 12.64595 | 21 ft | 9 kts | 213° |
| 2026-05-05 06:57 | 55.61660 | 12.64539 | 24 ft | 9 kts | 232° |
| 2026-05-05 06:57 | 55.61651 | 12.64401 | 24 ft | 14 kts | 265° |
| 2026-05-05 06:57 | 55.61649 | 12.64356 | 25 ft | 0 kts | 266° |
| 2026-05-05 06:59 | 55.61649 | 12.64351 | 25 ft | 2 kts | 266° |
| 2026-05-05 07:00 | 55.61646 | 12.64273 | 26 ft | 11 kts | 266° |
| 2026-05-05 07:00 | 55.61629 | 12.64082 | 28 ft | 21 kts | 240° |
| 2026-05-05 07:00 | 55.61512 | 12.63886 | 24 ft | 30 kts | 221° |
| 2026-05-05 07:00 | 55.61181 | 12.63374 | 29 ft | 95 kts | 220° |
| 2026-05-05 07:01 | 55.60539 | 12.62390 | 29 ft | 146 kts | 220° |
| 2026-05-05 07:01 | 55.59662 | 12.61048 | 113 ft | 176 kts | 223° |
| 2026-05-05 07:01 | 55.58706 | 12.59614 | 566 ft | 185 kts | 221° |
| 2026-05-05 07:01 | 55.57695 | 12.58180 | 1075 ft | 192 kts | 221° |
| 2026-05-05 07:02 | 55.56618 | 12.56728 | 1583 ft | 196 kts | 218° |
| 2026-05-05 07:02 | 55.55396 | 12.55785 | 2275 ft | 188 kts | 199° |
| 2026-05-05 07:02 | 55.54167 | 12.55021 | 2750 ft | 192 kts | 202° |
| 2026-05-05 07:02 | 55.52852 | 12.54142 | 2895 ft | 211 kts | 203° |
| 2026-05-05 07:03 | 55.51407 | 12.53177 | 3015 ft | 233 kts | 202° |
| 2026-05-05 07:03 | 55.49810 | 12.52129 | 3286 ft | 256 kts | 202° |
| 2026-05-05 07:03 | 55.48117 | 12.51043 | 4047 ft | 261 kts | 201° |
| 2026-05-05 07:03 | 55.46380 | 12.50046 | 4794 ft | 264 kts | 192° |
| 2026-05-05 07:04 | 55.44537 | 12.50155 | 5494 ft | 271 kts | 167° |
| 2026-05-05 07:04 | 55.42856 | 12.51692 | 6207 ft | 279 kts | 142° |
| 2026-05-05 07:04 | 55.41646 | 12.54397 | 6875 ft | 288 kts | 117° |
| 2026-05-05 07:04 | 55.40992 | 12.57770 | 7552 ft | 294 kts | 109° |
| 2026-05-05 07:05 | 55.40402 | 12.61248 | 8245 ft | 299 kts | 109° |
| 2026-05-05 07:05 | 55.39808 | 12.64780 | 8955 ft | 304 kts | 109° |
| 2026-05-05 07:05 | 55.39204 | 12.68373 | 9685 ft | 308 kts | 110° |
| 2026-05-05 07:05 | 55.38598 | 12.71958 | 10343 ft | 311 kts | 110° |
| 2026-05-05 07:06 | 55.37976 | 12.75616 | 11004 ft | 314 kts | 110° |
| 2026-05-05 07:06 | 55.37345 | 12.79304 | 11682 ft | 317 kts | 110° |
| 2026-05-05 07:06 | 55.36707 | 12.83028 | 12376 ft | 319 kts | 110° |
| 2026-05-05 07:06 | 55.36066 | 12.86768 | 13070 ft | 320 kts | 110° |
| 2026-05-05 07:07 | 55.35422 | 12.90518 | 13798 ft | 321 kts | 110° |
| 2026-05-05 07:07 | 55.34984 | 12.93063 | 14216 ft | 323 kts | 110° |
| 2026-05-05 07:07 | 55.34315 | 12.96929 | 14354 ft | 344 kts | 110° |
| 2026-05-05 07:07 | 55.33594 | 13.01072 | 14481 ft | 364 kts | 110° |
| 2026-05-05 07:08 | 55.32833 | 13.05451 | 14606 ft | 383 kts | 110° |
| 2026-05-05 07:08 | 55.32038 | 13.10026 | 14813 ft | 398 kts | 110° |
| 2026-05-05 07:08 | 55.31221 | 13.14736 | 15312 ft | 404 kts | 110° |
| 2026-05-05 07:08 | 55.30399 | 13.19471 | 15862 ft | 407 kts | 110° |
| 2026-05-05 07:09 | 55.29565 | 13.24246 | 16430 ft | 410 kts | 110° |
| 2026-05-05 07:09 | 55.28719 | 13.29053 | 16991 ft | 414 kts | 110° |
| 2026-05-05 07:09 | 55.27877 | 13.33826 | 17544 ft | 416 kts | 110° |
| 2026-05-05 07:09 | 55.27014 | 13.38708 | 18102 ft | 419 kts | 110° |
| 2026-05-05 07:10 | 55.26148 | 13.43602 | 18598 ft | 422 kts | 111° |
| 2026-05-05 07:10 | 55.25085 | 13.48394 | 19043 ft | 420 kts | 120° |
| 2026-05-05 07:10 | 55.23596 | 13.52772 | 19508 ft | 417 kts | 130° |
| 2026-05-05 07:10 | 55.21758 | 13.56678 | 19975 ft | 416 kts | 136° |
| 2026-05-05 07:11 | 55.19849 | 13.60506 | 20448 ft | 418 kts | 136° |
| 2026-05-05 07:11 | 55.17931 | 13.64356 | 20925 ft | 421 kts | 136° |
| 2026-05-05 07:11 | 55.16004 | 13.68230 | 21377 ft | 424 kts | 136° |
| 2026-05-05 07:11 | 55.14062 | 13.72133 | 21828 ft | 426 kts | 136° |
| 2026-05-05 07:12 | 55.12105 | 13.76060 | 22273 ft | 429 kts | 136° |
| 2026-05-05 07:12 | 55.10141 | 13.79996 | 22720 ft | 431 kts | 136° |
| 2026-05-05 07:12 | 55.08162 | 13.83956 | 23169 ft | 434 kts | 136° |
| 2026-05-05 07:12 | 55.06169 | 13.87931 | 23581 ft | 437 kts | 136° |
| 2026-05-05 07:13 | 55.04159 | 13.91934 | 23949 ft | 439 kts | 136° |
| 2026-05-05 07:13 | 55.02169 | 13.95890 | 24315 ft | 441 kts | 136° |
| 2026-05-05 07:13 | 55.00117 | 13.99961 | 24686 ft | 443 kts | 136° |
| 2026-05-05 07:13 | 54.98078 | 14.04002 | 25053 ft | 445 kts | 136° |
| 2026-05-05 07:14 | 54.96030 | 14.08051 | 25413 ft | 446 kts | 136° |
| 2026-05-05 07:14 | 54.93996 | 14.12063 | 25766 ft | 448 kts | 137° |
| 2026-05-05 07:14 | 54.91895 | 14.15970 | 26112 ft | 446 kts | 142° |
| 2026-05-05 07:14 | 54.89492 | 14.19333 | 26456 ft | 442 kts | 151° |
| 2026-05-05 07:15 | 54.86963 | 14.22392 | 26802 ft | 444 kts | 151° |
| 2026-05-05 07:15 | 54.84422 | 14.25467 | 27138 ft | 446 kts | 150° |
| 2026-05-05 07:15 | 54.81876 | 14.28549 | 27475 ft | 447 kts | 150° |
| 2026-05-05 07:15 | 54.79319 | 14.31644 | 27802 ft | 449 kts | 151° |
| 2026-05-05 07:16 | 54.76751 | 14.34741 | 28123 ft | 451 kts | 151° |
| 2026-05-05 07:16 | 54.74150 | 14.37787 | 28442 ft | 452 kts | 152° |
| 2026-05-05 07:16 | 54.71514 | 14.40782 | 28761 ft | 453 kts | 153° |
| 2026-05-05 07:16 | 54.68862 | 14.43736 | 29083 ft | 455 kts | 153° |
| 2026-05-05 07:17 | 54.66193 | 14.46689 | 29394 ft | 456 kts | 153° |
| 2026-05-05 07:17 | 54.63518 | 14.49661 | 29745 ft | 457 kts | 153° |
| 2026-05-05 07:17 | 54.60857 | 14.52637 | 30160 ft | 455 kts | 153° |
| 2026-05-05 07:17 | 54.58197 | 14.55625 | 30516 ft | 454 kts | 153° |
| 2026-05-05 07:18 | 54.55552 | 14.58599 | 30861 ft | 454 kts | 153° |
| 2026-05-05 07:18 | 54.52909 | 14.61566 | 31212 ft | 453 kts | 153° |
| 2026-05-05 07:18 | 54.50264 | 14.64527 | 31554 ft | 453 kts | 153° |
| 2026-05-05 07:18 | 54.47622 | 14.67474 | 31900 ft | 452 kts | 153° |
| 2026-05-05 07:19 | 54.44981 | 14.70412 | 32252 ft | 452 kts | 153° |
| 2026-05-05 07:19 | 54.42344 | 14.73345 | 32596 ft | 451 kts | 153° |
| 2026-05-05 07:19 | 54.39712 | 14.76273 | 32951 ft | 451 kts | 153° |
| 2026-05-05 07:19 | 54.37078 | 14.79198 | 33298 ft | 450 kts | 153° |
| 2026-05-05 07:20 | 54.34445 | 14.82108 | 33653 ft | 449 kts | 154° |
| 2026-05-05 07:20 | 54.31817 | 14.85003 | 33982 ft | 449 kts | 154° |
| 2026-05-05 07:20 | 54.29184 | 14.87873 | 34262 ft | 447 kts | 156° |
| 2026-05-05 07:20 | 54.26467 | 14.90180 | 34507 ft | 439 kts | 165° |
| 2026-05-05 07:21 | 54.23562 | 14.91906 | 34778 ft | 436 kts | 168° |
| 2026-05-05 07:21 | 54.20686 | 14.93540 | 34914 ft | 436 kts | 167° |
| 2026-05-05 07:21 | 54.17818 | 14.95177 | 34949 ft | 433 kts | 167° |
| 2026-05-05 07:22 | 54.12151 | 14.98412 | 34942 ft | 431 kts | 167° |
| 2026-05-05 07:22 | 54.06459 | 15.01643 | 34945 ft | 431 kts | 168° |
| 2026-05-05 07:23 | 54.00754 | 15.04786 | 34944 ft | 430 kts | 168° |
| 2026-05-05 07:23 | 53.95045 | 15.07868 | 34942 ft | 430 kts | 168° |
| 2026-05-05 07:24 | 53.89340 | 15.10932 | 34946 ft | 430 kts | 168° |
| 2026-05-05 07:24 | 53.83636 | 15.14005 | 34940 ft | 430 kts | 168° |
| 2026-05-05 07:25 | 53.77938 | 15.17082 | 34937 ft | 430 kts | 168° |
| 2026-05-05 07:25 | 53.72271 | 15.20131 | 34935 ft | 430 kts | 168° |
| 2026-05-05 07:26 | 53.66570 | 15.23183 | 34935 ft | 430 kts | 168° |
| 2026-05-05 07:26 | 53.60864 | 15.26217 | 34933 ft | 430 kts | 168° |
| 2026-05-05 07:27 | 53.55155 | 15.29256 | 34931 ft | 430 kts | 168° |
| 2026-05-05 07:27 | 53.49447 | 15.32277 | 34928 ft | 430 kts | 168° |
| 2026-05-05 07:28 | 53.43868 | 15.36111 | 34922 ft | 436 kts | 161° |
| 2026-05-05 07:28 | 53.38360 | 15.40375 | 34921 ft | 436 kts | 161° |
| 2026-05-05 07:29 | 53.32851 | 15.44599 | 34930 ft | 435 kts | 161° |
| 2026-05-05 07:29 | 53.27337 | 15.48799 | 34927 ft | 435 kts | 161° |
| 2026-05-05 07:30 | 53.21833 | 15.53002 | 34917 ft | 435 kts | 161° |
| 2026-05-05 07:30 | 53.13567 | 15.59288 | 34915 ft | 435 kts | 161° |
| 2026-05-05 07:31 | 53.08057 | 15.63457 | 34911 ft | 435 kts | 161° |
| 2026-05-05 07:31 | 53.02575 | 15.67597 | 34908 ft | 435 kts | 161° |
| 2026-05-05 07:32 | 52.97057 | 15.71749 | 34908 ft | 436 kts | 161° |
| 2026-05-05 07:32 | 52.91535 | 15.75885 | 34906 ft | 436 kts | 161° |
| 2026-05-05 07:33 | 52.86008 | 15.80016 | 34901 ft | 436 kts | 161° |
| 2026-05-05 07:33 | 52.80481 | 15.84129 | 34902 ft | 435 kts | 161° |
| 2026-05-05 07:34 | 52.74917 | 15.88081 | 34903 ft | 435 kts | 162° |
| 2026-05-05 07:34 | 52.69331 | 15.91934 | 34900 ft | 435 kts | 162° |
| 2026-05-05 07:35 | 52.63753 | 15.95793 | 34899 ft | 435 kts | 162° |
| 2026-05-05 07:35 | 52.58177 | 15.99672 | 34895 ft | 435 kts | 162° |
| 2026-05-05 07:36 | 52.52608 | 16.03545 | 34896 ft | 435 kts | 162° |
| 2026-05-05 07:36 | 52.47030 | 16.07412 | 34891 ft | 435 kts | 162° |
| 2026-05-05 07:37 | 52.41455 | 16.11258 | 34892 ft | 435 kts | 162° |
| 2026-05-05 07:37 | 52.35874 | 16.15090 | 34890 ft | 435 kts | 162° |
| 2026-05-05 07:38 | 52.30293 | 16.18924 | 34890 ft | 435 kts | 162° |
| 2026-05-05 07:38 | 52.24713 | 16.22753 | 34888 ft | 435 kts | 162° |
| 2026-05-05 07:39 | 52.19132 | 16.26574 | 34884 ft | 435 kts | 162° |
| 2026-05-05 07:39 | 52.13539 | 16.30373 | 34883 ft | 435 kts | 162° |
| 2026-05-05 07:40 | 52.07944 | 16.34169 | 34886 ft | 435 kts | 162° |
| 2026-05-05 07:40 | 52.02355 | 16.37955 | 34884 ft | 435 kts | 162° |
| 2026-05-05 07:41 | 51.96798 | 16.41707 | 34879 ft | 435 kts | 162° |
| 2026-05-05 07:41 | 51.91206 | 16.45465 | 34878 ft | 435 kts | 162° |
| 2026-05-05 07:42 | 51.85613 | 16.49220 | 34875 ft | 435 kts | 161° |
| 2026-05-05 07:42 | 51.80024 | 16.52972 | 34875 ft | 435 kts | 161° |
| 2026-05-05 07:43 | 51.74430 | 16.56708 | 34874 ft | 435 kts | 161° |
| 2026-05-05 07:43 | 51.68832 | 16.60423 | 34872 ft | 435 kts | 161° |
| 2026-05-05 07:44 | 51.63232 | 16.64136 | 34872 ft | 436 kts | 161° |
| 2026-05-05 07:44 | 51.57625 | 16.67859 | 34867 ft | 436 kts | 161° |
| 2026-05-05 07:45 | 51.52013 | 16.71567 | 34863 ft | 436 kts | 161° |
| 2026-05-05 07:45 | 51.46392 | 16.75254 | 34862 ft | 436 kts | 161° |
| 2026-05-05 07:46 | 51.40770 | 16.78955 | 34859 ft | 437 kts | 161° |
| 2026-05-05 07:46 | 51.35145 | 16.82654 | 34849 ft | 437 kts | 161° |
| 2026-05-05 07:47 | 51.29520 | 16.86337 | 34849 ft | 437 kts | 161° |
| 2026-05-05 07:47 | 51.23883 | 16.89993 | 34850 ft | 437 kts | 161° |
| 2026-05-05 07:48 | 51.18248 | 16.93648 | 34846 ft | 437 kts | 161° |
| 2026-05-05 07:48 | 51.12622 | 16.97298 | 34850 ft | 437 kts | 161° |
| 2026-05-05 07:49 | 51.06987 | 17.00953 | 34849 ft | 437 kts | 161° |
| 2026-05-05 07:49 | 51.01357 | 17.04605 | 34851 ft | 437 kts | 161° |
| 2026-05-05 07:50 | 50.95733 | 17.08232 | 34855 ft | 436 kts | 161° |
| 2026-05-05 07:50 | 50.90106 | 17.11846 | 34855 ft | 436 kts | 161° |
| 2026-05-05 07:51 | 50.84475 | 17.15438 | 34858 ft | 436 kts | 161° |
| 2026-05-05 07:51 | 50.78848 | 17.19027 | 34862 ft | 437 kts | 161° |
| 2026-05-05 07:52 | 50.74165 | 17.22019 | 34860 ft | 436 kts | 161° |
| 2026-05-05 07:52 | 50.68538 | 17.25604 | 34855 ft | 436 kts | 161° |
| 2026-05-05 07:53 | 50.62905 | 17.29167 | 34854 ft | 436 kts | 161° |
| 2026-05-05 07:53 | 50.57273 | 17.32723 | 34852 ft | 436 kts | 161° |
| 2026-05-05 07:54 | 50.51640 | 17.36291 | 34852 ft | 436 kts | 161° |
| 2026-05-05 07:54 | 50.46005 | 17.39849 | 34856 ft | 436 kts | 161° |
| 2026-05-05 07:55 | 50.40362 | 17.43377 | 34857 ft | 437 kts | 161° |
| 2026-05-05 07:55 | 50.34719 | 17.46896 | 34862 ft | 437 kts | 161° |
| 2026-05-05 07:56 | 50.29070 | 17.50407 | 34864 ft | 437 kts | 161° |
| 2026-05-05 07:56 | 50.23275 | 17.53032 | 34870 ft | 433 kts | 171° |
| 2026-05-05 07:57 | 50.17403 | 17.55112 | 34875 ft | 433 kts | 170° |
| 2026-05-05 07:57 | 50.11528 | 17.57205 | 34876 ft | 433 kts | 170° |
| 2026-05-05 07:58 | 50.05651 | 17.59284 | 34878 ft | 433 kts | 170° |
| 2026-05-05 07:58 | 49.99765 | 17.61360 | 34881 ft | 434 kts | 170° |
| 2026-05-05 07:59 | 49.93918 | 17.63424 | 34884 ft | 434 kts | 170° |
| 2026-05-05 07:59 | 49.88023 | 17.65499 | 34888 ft | 434 kts | 170° |
| 2026-05-05 08:00 | 49.82132 | 17.67579 | 34894 ft | 434 kts | 170° |
| 2026-05-05 08:00 | 49.76232 | 17.69644 | 34888 ft | 435 kts | 170° |
| 2026-05-05 08:01 | 49.70331 | 17.71688 | 34890 ft | 435 kts | 170° |
| 2026-05-05 08:01 | 49.64422 | 17.73741 | 34890 ft | 435 kts | 170° |
| 2026-05-05 08:02 | 49.58512 | 17.75804 | 34887 ft | 435 kts | 170° |
| 2026-05-05 08:02 | 49.52600 | 17.77863 | 34888 ft | 435 kts | 170° |
| 2026-05-05 08:03 | 49.46692 | 17.79903 | 34895 ft | 435 kts | 170° |
| 2026-05-05 08:03 | 49.40780 | 17.81928 | 34895 ft | 435 kts | 170° |
| 2026-05-05 08:04 | 49.34878 | 17.83958 | 34897 ft | 435 kts | 170° |
| 2026-05-05 08:04 | 49.28968 | 17.85983 | 34893 ft | 435 kts | 171° |
| 2026-05-05 08:05 | 49.23061 | 17.88014 | 34902 ft | 435 kts | 170° |
| 2026-05-05 08:05 | 49.17162 | 17.90033 | 34907 ft | 434 kts | 170° |
| 2026-05-05 08:06 | 49.11267 | 17.92034 | 34909 ft | 434 kts | 170° |
| 2026-05-05 08:06 | 49.05365 | 17.94041 | 34908 ft | 434 kts | 170° |
| 2026-05-05 08:07 | 48.99682 | 17.97227 | 34912 ft | 440 kts | 155° |
| 2026-05-05 08:07 | 48.94266 | 18.01551 | 34914 ft | 440 kts | 155° |
| 2026-05-05 08:08 | 48.88844 | 18.05858 | 34920 ft | 440 kts | 155° |
| 2026-05-05 08:08 | 48.83452 | 18.10118 | 34926 ft | 440 kts | 156° |
| 2026-05-05 08:09 | 48.78023 | 18.14400 | 34924 ft | 440 kts | 155° |
| 2026-05-05 08:09 | 48.72595 | 18.18684 | 34926 ft | 440 kts | 155° |
| 2026-05-05 08:10 | 48.67157 | 18.22961 | 34926 ft | 440 kts | 155° |
| 2026-05-05 08:10 | 48.61715 | 18.27230 | 34930 ft | 441 kts | 155° |
| 2026-05-05 08:11 | 48.56268 | 18.31487 | 34939 ft | 441 kts | 155° |
| 2026-05-05 08:11 | 48.50817 | 18.35732 | 34945 ft | 441 kts | 155° |
| 2026-05-05 08:12 | 48.45366 | 18.39980 | 34947 ft | 441 kts | 155° |
| 2026-05-05 08:12 | 48.39910 | 18.44224 | 34947 ft | 441 kts | 155° |
| 2026-05-05 08:13 | 48.34448 | 18.48448 | 34951 ft | 441 kts | 155° |
| 2026-05-05 08:13 | 48.28982 | 18.52665 | 34953 ft | 441 kts | 155° |
| 2026-05-05 08:14 | 48.23547 | 18.56850 | 34959 ft | 442 kts | 155° |
| 2026-05-05 08:14 | 48.18076 | 18.61048 | 34958 ft | 442 kts | 155° |
| 2026-05-05 08:15 | 48.12595 | 18.65253 | 34966 ft | 442 kts | 155° |
| 2026-05-05 08:15 | 48.07114 | 18.69450 | 34963 ft | 442 kts | 155° |
| 2026-05-05 08:16 | 48.01633 | 18.73641 | 34970 ft | 442 kts | 155° |
| 2026-05-05 08:16 | 47.96147 | 18.77829 | 34971 ft | 443 kts | 155° |
| 2026-05-05 08:17 | 47.90657 | 18.81996 | 34976 ft | 443 kts | 155° |
| 2026-05-05 08:17 | 47.85163 | 18.86160 | 34973 ft | 443 kts | 155° |
| 2026-05-05 08:18 | 47.79661 | 18.90309 | 34976 ft | 443 kts | 155° |
| 2026-05-05 08:18 | 47.74200 | 18.94429 | 34981 ft | 443 kts | 155° |
| 2026-05-05 08:19 | 47.68697 | 18.98569 | 34988 ft | 443 kts | 155° |
| 2026-05-05 08:19 | 47.63192 | 19.02698 | 34999 ft | 444 kts | 155° |
| 2026-05-05 08:20 | 47.57684 | 19.06820 | 35002 ft | 444 kts | 155° |
| 2026-05-05 08:20 | 47.52164 | 19.10952 | 35006 ft | 444 kts | 155° |
| 2026-05-05 08:21 | 47.46645 | 19.15063 | 35013 ft | 445 kts | 155° |
| 2026-05-05 08:21 | 47.41113 | 19.19175 | 35011 ft | 445 kts | 155° |
| 2026-05-05 08:22 | 47.35578 | 19.23287 | 35016 ft | 445 kts | 155° |
| 2026-05-05 08:22 | 47.30035 | 19.27393 | 35014 ft | 446 kts | 155° |
| 2026-05-05 08:23 | 47.24485 | 19.31488 | 35013 ft | 446 kts | 155° |
| 2026-05-05 08:23 | 47.18932 | 19.35574 | 35013 ft | 446 kts | 155° |
| 2026-05-05 08:24 | 47.13376 | 19.39663 | 35013 ft | 447 kts | 155° |
| 2026-05-05 08:24 | 47.07849 | 19.43720 | 35015 ft | 447 kts | 155° |
| 2026-05-05 08:25 | 47.02260 | 19.47805 | 35016 ft | 448 kts | 155° |
| 2026-05-05 08:25 | 46.96680 | 19.51876 | 35020 ft | 448 kts | 155° |
| 2026-05-05 08:26 | 46.91139 | 19.55911 | 35018 ft | 448 kts | 155° |
| 2026-05-05 08:26 | 46.85555 | 19.59959 | 35013 ft | 448 kts | 155° |
| 2026-05-05 08:27 | 46.79975 | 19.64002 | 35014 ft | 448 kts | 155° |
| 2026-05-05 08:27 | 46.74390 | 19.68038 | 35017 ft | 448 kts | 155° |
| 2026-05-05 08:28 | 46.68796 | 19.72071 | 35018 ft | 449 kts | 155° |
| 2026-05-05 08:28 | 46.63197 | 19.76108 | 35021 ft | 449 kts | 155° |
| 2026-05-05 08:29 | 46.57588 | 19.80132 | 35028 ft | 450 kts | 155° |
| 2026-05-05 08:30 | 46.49155 | 19.86165 | 35028 ft | 450 kts | 155° |
| 2026-05-05 08:30 | 46.43526 | 19.90183 | 35030 ft | 451 kts | 155° |
| 2026-05-05 08:31 | 46.37891 | 19.94187 | 35033 ft | 451 kts | 155° |
| 2026-05-05 08:31 | 46.32246 | 19.98195 | 35041 ft | 452 kts | 155° |
| 2026-05-05 08:32 | 46.26601 | 20.02201 | 35038 ft | 452 kts | 155° |
| 2026-05-05 08:32 | 46.20954 | 20.06194 | 35038 ft | 452 kts | 155° |
| 2026-05-05 08:33 | 46.15240 | 20.09984 | 35037 ft | 451 kts | 162° |
| 2026-05-05 08:33 | 46.09289 | 20.12864 | 35034 ft | 451 kts | 162° |
| 2026-05-05 08:34 | 46.03333 | 20.15745 | 35031 ft | 451 kts | 162° |
| 2026-05-05 08:34 | 45.97378 | 20.18621 | 35027 ft | 452 kts | 162° |
| 2026-05-05 08:35 | 45.91418 | 20.21507 | 35032 ft | 452 kts | 162° |
| 2026-05-05 08:35 | 45.85456 | 20.24384 | 35030 ft | 453 kts | 162° |
| 2026-05-05 08:36 | 45.79516 | 20.27233 | 35028 ft | 453 kts | 162° |
| 2026-05-05 08:36 | 45.73526 | 20.30093 | 35033 ft | 454 kts | 162° |
| 2026-05-05 08:37 | 45.67536 | 20.32955 | 35031 ft | 454 kts | 162° |
| 2026-05-05 08:37 | 45.61537 | 20.35824 | 35032 ft | 455 kts | 162° |
| 2026-05-05 08:38 | 45.55528 | 20.38693 | 35036 ft | 455 kts | 162° |
| 2026-05-05 08:38 | 45.50533 | 20.41072 | 35032 ft | 456 kts | 162° |
| 2026-05-05 08:39 | 45.44512 | 20.43921 | 35031 ft | 456 kts | 162° |
| 2026-05-05 08:39 | 45.38489 | 20.46756 | 35032 ft | 456 kts | 162° |
| 2026-05-05 08:40 | 45.32464 | 20.49595 | 35034 ft | 457 kts | 162° |
| 2026-05-05 08:40 | 45.26425 | 20.52452 | 35033 ft | 457 kts | 162° |
| 2026-05-05 08:41 | 45.20387 | 20.55288 | 35036 ft | 457 kts | 162° |
| 2026-05-05 08:41 | 45.14346 | 20.58126 | 35035 ft | 458 kts | 162° |
| 2026-05-05 08:42 | 45.08297 | 20.60958 | 35032 ft | 458 kts | 162° |
| 2026-05-05 08:42 | 45.02239 | 20.63786 | 35033 ft | 458 kts | 162° |
| 2026-05-05 08:43 | 44.96180 | 20.66604 | 35030 ft | 459 kts | 162° |
| 2026-05-05 08:43 | 44.90114 | 20.69420 | 35035 ft | 459 kts | 162° |
| 2026-05-05 08:44 | 44.84046 | 20.72230 | 35037 ft | 459 kts | 162° |
| 2026-05-05 08:44 | 44.77969 | 20.75050 | 35036 ft | 460 kts | 162° |
| 2026-05-05 08:45 | 44.71887 | 20.77856 | 35039 ft | 460 kts | 162° |
| 2026-05-05 08:45 | 44.65861 | 20.80891 | 35037 ft | 461 kts | 160° |
| 2026-05-05 08:46 | 44.59882 | 20.84161 | 35042 ft | 461 kts | 159° |
| 2026-05-05 08:46 | 44.53891 | 20.87417 | 35046 ft | 462 kts | 160° |
| 2026-05-05 08:47 | 44.47876 | 20.90593 | 35048 ft | 462 kts | 160° |
| 2026-05-05 08:47 | 44.41843 | 20.93738 | 35053 ft | 463 kts | 160° |
| 2026-05-05 08:48 | 44.35802 | 20.96900 | 35060 ft | 463 kts | 160° |
| 2026-05-05 08:48 | 44.29758 | 21.00058 | 35064 ft | 464 kts | 160° |
| 2026-05-05 08:49 | 44.23702 | 21.03214 | 35061 ft | 465 kts | 160° |
| 2026-05-05 08:49 | 44.17637 | 21.06368 | 35062 ft | 465 kts | 160° |
| 2026-05-05 08:50 | 44.11571 | 21.09518 | 35063 ft | 466 kts | 160° |
| 2026-05-05 08:50 | 44.05494 | 21.12679 | 35070 ft | 466 kts | 160° |
| 2026-05-05 08:51 | 43.99414 | 21.15833 | 35073 ft | 467 kts | 160° |
| 2026-05-05 08:51 | 43.93324 | 21.18962 | 35070 ft | 467 kts | 160° |
| 2026-05-05 08:52 | 43.87226 | 21.22107 | 35075 ft | 468 kts | 160° |
| 2026-05-05 08:52 | 43.81123 | 21.25254 | 35075 ft | 468 kts | 160° |
| 2026-05-05 08:53 | 43.75009 | 21.28387 | 35082 ft | 469 kts | 160° |
| 2026-05-05 08:53 | 43.68885 | 21.31505 | 35079 ft | 469 kts | 161° |
| 2026-05-05 08:54 | 43.62760 | 21.34628 | 35078 ft | 470 kts | 160° |
| 2026-05-05 08:54 | 43.56631 | 21.37760 | 35084 ft | 470 kts | 161° |
| 2026-05-05 08:55 | 43.50491 | 21.40887 | 35085 ft | 471 kts | 161° |
| 2026-05-05 08:55 | 43.44338 | 21.44012 | 35088 ft | 471 kts | 161° |
| 2026-05-05 08:56 | 43.38187 | 21.47123 | 35091 ft | 472 kts | 160° |
| 2026-05-05 08:56 | 43.32024 | 21.50233 | 35093 ft | 472 kts | 161° |
| 2026-05-05 08:57 | 43.25855 | 21.53343 | 35100 ft | 473 kts | 161° |
| 2026-05-05 08:57 | 43.19672 | 21.56455 | 35102 ft | 473 kts | 161° |
| 2026-05-05 08:58 | 43.13484 | 21.59562 | 35104 ft | 474 kts | 161° |
| 2026-05-05 08:58 | 43.07295 | 21.62665 | 35108 ft | 474 kts | 161° |
| 2026-05-05 08:59 | 43.01100 | 21.65765 | 35109 ft | 474 kts | 161° |
| 2026-05-05 08:59 | 42.94939 | 21.68826 | 35098 ft | 474 kts | 161° |
| 2026-05-05 09:00 | 42.88682 | 21.71687 | 35102 ft | 474 kts | 163° |
| 2026-05-05 09:00 | 42.82385 | 21.74383 | 35102 ft | 474 kts | 164° |
| 2026-05-05 09:01 | 42.76085 | 21.77098 | 35103 ft | 475 kts | 163° |
| 2026-05-05 09:01 | 42.69789 | 21.79870 | 35116 ft | 476 kts | 163° |
| 2026-05-05 09:02 | 42.63490 | 21.82640 | 35116 ft | 476 kts | 163° |
| 2026-05-05 09:02 | 42.57189 | 21.85414 | 35113 ft | 476 kts | 163° |
| 2026-05-05 09:03 | 42.50883 | 21.88174 | 35128 ft | 476 kts | 163° |
| 2026-05-05 09:03 | 42.44567 | 21.90928 | 35127 ft | 477 kts | 163° |
| 2026-05-05 09:04 | 42.38247 | 21.93698 | 35133 ft | 477 kts | 163° |
| 2026-05-05 09:04 | 42.31919 | 21.96460 | 35124 ft | 478 kts | 163° |
| 2026-05-05 09:05 | 42.25589 | 21.99199 | 35129 ft | 478 kts | 163° |
| 2026-05-05 09:05 | 42.19246 | 22.01946 | 35129 ft | 479 kts | 163° |
| 2026-05-05 09:06 | 42.12908 | 22.04696 | 35136 ft | 479 kts | 163° |
| 2026-05-05 09:06 | 42.06553 | 22.07438 | 35134 ft | 480 kts | 163° |
| 2026-05-05 09:07 | 42.00215 | 22.10255 | 35128 ft | 480 kts | 162° |
| 2026-05-05 09:07 | 41.93925 | 22.13311 | 35130 ft | 480 kts | 161° |
| 2026-05-05 09:08 | 41.87649 | 22.16401 | 35130 ft | 481 kts | 161° |
| 2026-05-05 09:08 | 41.81348 | 22.19435 | 35133 ft | 481 kts | 161° |
| 2026-05-05 09:09 | 41.75083 | 22.22406 | 35137 ft | 481 kts | 162° |
| 2026-05-05 09:09 | 41.68764 | 22.25397 | 35133 ft | 481 kts | 162° |
| 2026-05-05 09:10 | 41.62449 | 22.28388 | 35127 ft | 481 kts | 162° |
| 2026-05-05 09:10 | 41.56127 | 22.31383 | 35127 ft | 482 kts | 162° |
| 2026-05-05 09:11 | 41.49809 | 22.34369 | 35126 ft | 482 kts | 162° |
| 2026-05-05 09:11 | 41.43481 | 22.37351 | 35123 ft | 482 kts | 162° |
| 2026-05-05 09:12 | 41.37153 | 22.40321 | 35119 ft | 483 kts | 162° |
| 2026-05-05 09:12 | 41.30811 | 22.43301 | 35109 ft | 483 kts | 162° |
| 2026-05-05 09:13 | 41.24491 | 22.46272 | 35107 ft | 484 kts | 162° |
| 2026-05-05 09:13 | 41.18129 | 22.49239 | 35106 ft | 484 kts | 162° |
| 2026-05-05 09:14 | 41.11821 | 22.52442 | 35107 ft | 485 kts | 153° |
| 2026-05-05 09:14 | 41.05901 | 22.56670 | 35110 ft | 485 kts | 152° |
| 2026-05-05 09:15 | 40.99944 | 22.60908 | 35112 ft | 485 kts | 152° |
| 2026-05-05 09:15 | 40.93984 | 22.65129 | 35105 ft | 485 kts | 152° |
| 2026-05-05 09:16 | 40.88031 | 22.69348 | 35107 ft | 485 kts | 152° |
| 2026-05-05 09:16 | 40.85100 | 22.71423 | 34831 ft | 484 kts | 152° |
| 2026-05-05 09:16 | 40.82089 | 22.73553 | 34180 ft | 485 kts | 152° |
| 2026-05-05 09:16 | 40.79116 | 22.75656 | 33539 ft | 485 kts | 152° |
| 2026-05-05 09:17 | 40.76169 | 22.77735 | 33020 ft | 487 kts | 152° |
| 2026-05-05 09:17 | 40.73180 | 22.79837 | 32531 ft | 489 kts | 152° |
| 2026-05-05 09:17 | 40.70166 | 22.81949 | 32038 ft | 490 kts | 152° |
| 2026-05-05 09:17 | 40.67152 | 22.84060 | 31547 ft | 491 kts | 152° |
| 2026-05-05 09:18 | 40.64130 | 22.86178 | 31077 ft | 493 kts | 152° |
| 2026-05-05 09:18 | 40.61101 | 22.88306 | 30608 ft | 492 kts | 152° |
| 2026-05-05 09:18 | 40.58094 | 22.90422 | 30142 ft | 490 kts | 152° |
| 2026-05-05 09:18 | 40.55083 | 22.92540 | 29614 ft | 487 kts | 152° |
| 2026-05-05 09:19 | 40.52106 | 22.94627 | 29085 ft | 483 kts | 152° |
| 2026-05-05 09:19 | 40.49148 | 22.96689 | 28565 ft | 479 kts | 152° |
| 2026-05-05 09:19 | 40.46208 | 22.98712 | 28055 ft | 475 kts | 154° |
| 2026-05-05 09:19 | 40.43211 | 23.00341 | 27563 ft | 471 kts | 160° |
| 2026-05-05 09:20 | 40.40155 | 23.01861 | 27072 ft | 467 kts | 160° |
| 2026-05-05 09:20 | 40.37122 | 23.03369 | 26591 ft | 464 kts | 160° |
| 2026-05-05 09:20 | 40.34117 | 23.04863 | 26117 ft | 460 kts | 159° |
| 2026-05-05 09:20 | 40.31134 | 23.06350 | 25650 ft | 457 kts | 159° |
| 2026-05-05 09:21 | 40.28174 | 23.07823 | 25194 ft | 453 kts | 159° |
| 2026-05-05 09:21 | 40.25234 | 23.09283 | 24740 ft | 450 kts | 159° |
| 2026-05-05 09:21 | 40.22315 | 23.10729 | 24300 ft | 447 kts | 159° |
| 2026-05-05 09:21 | 40.20356 | 23.11697 | 23995 ft | 445 kts | 159° |
| 2026-05-05 09:22 | 40.17502 | 23.13106 | 23550 ft | 442 kts | 159° |
| 2026-05-05 09:22 | 40.14641 | 23.14520 | 23029 ft | 438 kts | 159° |
| 2026-05-05 09:22 | 40.11805 | 23.15926 | 22481 ft | 434 kts | 159° |
| 2026-05-05 09:22 | 40.08986 | 23.17326 | 21840 ft | 432 kts | 159° |
| 2026-05-05 09:23 | 40.06182 | 23.18717 | 21227 ft | 430 kts | 159° |
| 2026-05-05 09:23 | 40.03390 | 23.20100 | 20621 ft | 428 kts | 159° |
| 2026-05-05 09:23 | 40.00626 | 23.21467 | 20024 ft | 420 kts | 159° |
| 2026-05-05 09:23 | 39.97906 | 23.22806 | 19447 ft | 417 kts | 159° |
| 2026-05-05 09:24 | 39.95191 | 23.24137 | 18878 ft | 415 kts | 159° |
| 2026-05-05 09:24 | 39.92484 | 23.25458 | 18309 ft | 413 kts | 159° |
| 2026-05-05 09:24 | 39.89793 | 23.26770 | 17665 ft | 411 kts | 159° |
| 2026-05-05 09:24 | 39.87122 | 23.28077 | 17024 ft | 409 kts | 158° |
| 2026-05-05 09:25 | 39.84461 | 23.29382 | 16415 ft | 407 kts | 158° |
| 2026-05-05 09:25 | 39.81844 | 23.30666 | 15815 ft | 405 kts | 158° |
| 2026-05-05 09:25 | 39.79223 | 23.31949 | 15207 ft | 399 kts | 158° |
| 2026-05-05 09:25 | 39.76661 | 23.33199 | 14632 ft | 387 kts | 158° |
| 2026-05-05 09:26 | 39.74171 | 23.34412 | 14059 ft | 379 kts | 158° |
| 2026-05-05 09:26 | 39.71708 | 23.35613 | 13498 ft | 378 kts | 158° |
| 2026-05-05 09:26 | 39.69269 | 23.36805 | 13071 ft | 372 kts | 158° |
| 2026-05-05 09:26 | 39.66870 | 23.37978 | 12661 ft | 366 kts | 158° |
| 2026-05-05 09:27 | 39.64507 | 23.39134 | 12245 ft | 360 kts | 158° |
| 2026-05-05 09:27 | 39.62176 | 23.40273 | 11839 ft | 355 kts | 158° |
| 2026-05-05 09:27 | 39.59873 | 23.41396 | 11436 ft | 351 kts | 158° |
| 2026-05-05 09:27 | 39.57600 | 23.42504 | 11036 ft | 346 kts | 158° |
| 2026-05-05 09:28 | 39.55415 | 23.43563 | 10636 ft | 325 kts | 158° |
| 2026-05-05 09:28 | 39.53334 | 23.44568 | 10257 ft | 314 kts | 158° |
| 2026-05-05 09:28 | 39.51323 | 23.45538 | 9931 ft | 305 kts | 158° |
| 2026-05-05 09:28 | 39.49346 | 23.46491 | 9589 ft | 301 kts | 158° |
| 2026-05-05 09:29 | 39.47410 | 23.47426 | 9242 ft | 298 kts | 158° |
| 2026-05-05 09:29 | 39.45473 | 23.48361 | 8905 ft | 296 kts | 158° |
| 2026-05-05 09:29 | 39.43545 | 23.49293 | 8551 ft | 294 kts | 158° |
| 2026-05-05 09:29 | 39.41637 | 23.50215 | 8233 ft | 292 kts | 158° |
| 2026-05-05 09:30 | 39.39734 | 23.51136 | 7900 ft | 291 kts | 159° |
| 2026-05-05 09:30 | 39.37868 | 23.52043 | 7578 ft | 288 kts | 159° |
| 2026-05-05 09:30 | 39.36005 | 23.52944 | 7294 ft | 283 kts | 159° |
| 2026-05-05 09:30 | 39.34181 | 23.53824 | 7046 ft | 277 kts | 159° |
| 2026-05-05 09:31 | 39.32395 | 23.54683 | 6799 ft | 271 kts | 159° |
| 2026-05-05 09:31 | 39.30652 | 23.55522 | 6551 ft | 263 kts | 159° |
| 2026-05-05 09:31 | 39.28969 | 23.56336 | 6255 ft | 254 kts | 159° |
| 2026-05-05 09:31 | 39.27354 | 23.57121 | 5976 ft | 242 kts | 159° |
| 2026-05-05 09:32 | 39.25812 | 23.57867 | 5655 ft | 232 kts | 160° |
| 2026-05-05 09:32 | 39.24281 | 23.58346 | 5354 ft | 223 kts | 179° |
| 2026-05-05 09:32 | 39.22757 | 23.58394 | 5063 ft | 217 kts | 180° |
| 2026-05-05 09:32 | 39.21248 | 23.58443 | 4765 ft | 216 kts | 180° |
| 2026-05-05 09:33 | 39.19748 | 23.58491 | 4460 ft | 215 kts | 180° |
| 2026-05-05 09:33 | 39.18253 | 23.58539 | 4175 ft | 213 kts | 180° |
| 2026-05-05 09:33 | 39.16797 | 23.58583 | 4095 ft | 207 kts | 180° |
| 2026-05-05 09:33 | 39.15363 | 23.58625 | 4049 ft | 205 kts | 180° |
| 2026-05-05 09:34 | 39.13965 | 23.58499 | 3907 ft | 204 kts | 193° |
| 2026-05-05 09:34 | 39.12570 | 23.57983 | 3782 ft | 204 kts | 205° |
| 2026-05-05 09:34 | 39.11328 | 23.57197 | 3649 ft | 201 kts | 210° |
| 2026-05-05 09:34 | 39.10090 | 23.56386 | 3505 ft | 200 kts | 210° |
| 2026-05-05 09:35 | 39.08873 | 23.55595 | 3369 ft | 189 kts | 210° |
| 2026-05-05 09:35 | 39.06588 | 23.54102 | 2966 ft | 182 kts | 213° |
| 2026-05-05 09:35 | 39.05711 | 23.53028 | 2713 ft | 168 kts | 243° |
| 2026-05-05 09:36 | 39.05412 | 23.51691 | 2503 ft | 152 kts | 271° |
| 2026-05-05 09:36 | 39.05640 | 23.50408 | 2305 ft | 146 kts | 297° |
| 2026-05-05 09:36 | 39.06275 | 23.49437 | 2108 ft | 144 kts | 322° |
| 2026-05-05 09:36 | 39.07211 | 23.48852 | 1916 ft | 146 kts | 336° |
| 2026-05-05 09:37 | 39.08151 | 23.48424 | 1706 ft | 142 kts | 342° |
| 2026-05-05 09:37 | 39.09120 | 23.48195 | 1538 ft | 141 kts | 351° |
| 2026-05-05 09:37 | 39.10099 | 23.48159 | 1336 ft | 141 kts | 355° |
| 2026-05-05 09:37 | 39.11080 | 23.48124 | 1146 ft | 141 kts | 355° |
| 2026-05-05 09:38 | 39.12066 | 23.48094 | 964 ft | 142 kts | 357° |
| 2026-05-05 09:38 | 39.13047 | 23.48283 | 805 ft | 145 kts | 10° |
| 2026-05-05 09:38 | 39.14000 | 23.48680 | 580 ft | 142 kts | 21° |
| 2026-05-05 09:38 | 39.14929 | 23.49120 | 382 ft | 141 kts | 20° |
| 2026-05-05 09:39 | 39.15856 | 23.49536 | 284 ft | 143 kts | 19° |
| 2026-05-05 09:39 | 39.16789 | 23.49956 | 70 ft | 141 kts | 16° |
| 2026-05-05 09:39 | 39.17667 | 23.50322 | 41 ft | 119 kts | 15° |
| 2026-05-05 09:39 | 39.18237 | 23.50602 | 56 ft | 53 kts | 19° |
| 2026-05-05 09:40 | 39.18447 | 23.50702 | 58 ft | 19 kts | 22° |
| 2026-05-05 09:40 | 39.18509 | 23.50738 | 57 ft | 3 kts | 299° |
| 2026-05-05 09:40 | 39.18493 | 23.50714 | 56 ft | 6 kts | 204° |
| 2026-05-05 09:40 | 39.18431 | 23.50686 | 61 ft | 13 kts | 199° |
| 2026-05-05 09:41 | 39.18310 | 23.50632 | 54 ft | 24 kts | 199° |
| 2026-05-05 09:41 | 39.18112 | 23.50542 | 50 ft | 34 kts | 200° |
| 2026-05-05 09:41 | 39.17931 | 23.50448 | 40 ft | 10 kts | 236° |
| 2026-05-05 09:41 | 39.17916 | 23.50361 | 42 ft | 0 kts | 251° |
| 2026-05-05 09:43 | 39.17906 | 23.50337 | 41 ft | 8 kts | 229° |
| 2026-05-05 09:43 | 39.17825 | 23.50298 | 39 ft | 16 kts | 197° |
| 2026-05-05 09:43 | 39.17712 | 23.50256 | 39 ft | 16 kts | 189° |
| 2026-05-05 09:43 | 39.17635 | 23.50229 | 39 ft | 8 kts | 197° |
| 2026-05-05 09:44 | 39.17607 | 23.50211 | 37 ft | 2 kts | 237° |
| 2026-05-05 09:44 | 39.17604 | 23.50194 | 39 ft | 2 kts | 269° |
| 2026-05-05 09:44 | 39.17606 | 23.50171 | 39 ft | 1 kts | 279° |
| 2026-05-05 09:44 | 39.17609 | 23.50165 | 39 ft | 0 kts | 297° |
| 2026-05-05 09:45 | 39.17620 | 23.50163 | 39 ft | 3 kts | 356° |
| 2026-05-05 09:45 | 39.17641 | 23.50172 | 39 ft | 3 kts | 18° |
| 2026-05-05 09:45 | 39.17652 | 23.50184 | 39 ft | 0 kts | 66° |
| 2026-05-05 09:45 | 39.17649 | 23.50191 | 39 ft | 1 kts | 109° |
| 2026-05-05 09:46 | 39.17648 | 23.50194 | 39 ft | 0 kts | 108° |